Time;durP1;ratioP1;P1;durP2;ratioP2;P2;SDS_P1;SDS_P2;PMS_P1;PMS_P2;Temp;Humidity;BMP_temperature;BMP_pressure;BME280_temperature;BME280_humidity;BME280_pressure;Samples;Min_cycle;Max_cycle;Signal;HPM_P1;HPM_P2
2022/08/15 00:01:01;;;;;;;22.77;16.27;;;;;;;20.80;95.25;100238.19;4968172;28;20042;-70
2022/08/15 00:03:33;;;;;;;21.90;16.90;;;;;;;20.55;97.83;100238.31;4955530;28;20093;-70
2022/08/15 00:06:03;;;;;;;23.50;15.93;;;;;;;20.83;94.34;100240.50;4950753;28;20104;-71
2022/08/15 00:08:31;;;;;;;23.88;15.63;;;;;;;20.76;94.85;100240.38;4951415;28;20097;-71
2022/08/15 00:11:01;;;;;;;27.75;15.35;;;;;;;20.92;93.42;100231.31;4968583;28;20030;-70
2022/08/15 00:13:28;;;;;;;22.65;15.85;;;;;;;20.73;97.30;100229.06;4969032;28;20101;-71
2022/08/15 00:15:54;;;;;;;22.98;16.02;;;;;;;20.92;94.38;100228.59;4967910;28;20039;-70
2022/08/15 00:18:22;;;;;;;18.90;14.45;;;;;;;21.00;94.61;100230.44;4968534;28;20653;-71
2022/08/15 00:20:48;;;;;;;20.77;16.10;;;;;;;20.79;97.82;100229.22;4969000;28;20053;-71
2022/08/15 00:23:19;;;;;;;20.83;15.98;;;;;;;20.82;95.73;100233.41;4969541;28;20058;-71
2022/08/15 00:25:47;;;;;;;20.13;14.93;;;;;;;20.90;95.63;100226.09;4958214;28;20483;-70
2022/08/15 00:28:14;;;;;;;25.98;16.58;;;;;;;21.06;93.14;100235.97;4969011;28;20045;-71
2022/08/15 00:30:41;;;;;;;23.98;15.32;;;;;;;20.99;92.44;100240.44;4968637;28;20048;-70
2022/08/15 00:33:07;;;;;;;19.73;14.98;;;;;;;21.05;93.98;100239.72;4959639;28;20077;-70
2022/08/15 00:35:36;;;;;;;21.13;14.20;;;;;;;20.93;95.43;100239.28;4941797;28;20109;-71
2022/08/15 00:38:03;;;;;;;21.15;15.90;;;;;;;20.62;97.04;100241.13;4956376;28;20031;-71
2022/08/15 00:41:39;;;;;;;24.85;16.00;;;;;;;20.12;99.84;100236.91;4942085;28;20034;-71
2022/08/15 00:43:21;;;;;;;21.83;15.57;;;;;;;19.80;100.00;100237.84;4957890;28;20077;-71
2022/08/15 00:45:47;;;;;;;23.60;16.75;;;;;;;19.97;100.00;100233.22;4952498;28;20870;-71
2022/08/15 00:50:58;;;;;;;20.90;15.55;;;;;;;20.33;98.98;100223.66;4954393;28;20137;-70
2022/08/15 00:53:25;;;;;;;23.77;16.73;;;;;;;20.43;99.43;100221.56;4950181;28;20692;-71
2022/08/15 00:55:51;;;;;;;22.27;16.63;;;;;;;20.36;100.00;100219.72;4932578;28;20042;-71
2022/08/15 00:58:16;;;;;;;23.60;16.70;;;;;;;20.31;100.00;100216.72;4953392;28;20034;-70
2022/08/15 01:00:46;;;;;;;24.92;17.35;;;;;;;20.50;98.58;100223.59;4954825;28;20042;-70
2022/08/15 01:03:24;;;;;;;22.27;15.68;;;;;;;20.66;97.39;100218.94;4951606;28;20030;-71
2022/08/15 01:05:59;;;;;;;23.35;17.23;;;;;;;20.55;97.90;100210.38;4951871;28;20804;-71
2022/08/15 01:08:30;;;;;;;23.20;16.05;;;;;;;20.14;100.00;100210.53;4949791;28;20046;-70
2022/08/15 01:10:57;;;;;;;23.23;17.75;;;;;;;19.92;100.00;100209.38;4953554;28;20035;-71
2022/08/15 01:13:23;;;;;;;25.50;17.63;;;;;;;19.96;100.00;100204.47;4950453;28;20039;-70
2022/08/15 01:15:48;;;;;;;24.70;17.35;;;;;;;20.08;100.00;100213.91;4950470;28;20049;-71
2022/08/15 01:18:14;;;;;;;25.58;18.17;;;;;;;20.09;100.00;100202.91;4952427;28;20109;-71
2022/08/15 01:20:43;;;;;;;22.55;16.85;;;;;;;20.11;100.00;100206.28;4953358;28;20068;-71
2022/08/15 01:23:17;;;;;;;21.33;15.77;;;;;;;20.30;100.00;100206.91;4950406;28;20031;-70
2022/08/15 01:25:54;;;;;;;28.00;16.13;;;;;;;20.26;100.00;100202.84;4952872;28;20054;-70
2022/08/15 01:28:46;;;;;;;24.52;16.98;;;;;;;19.83;100.00;100205.00;4935569;28;20042;-70
2022/08/15 01:31:17;;;;;;;24.60;17.33;;;;;;;19.32;100.00;100201.66;4952247;28;20319;-71
2022/08/15 01:33:50;;;;;;;29.17;17.10;;;;;;;19.83;100.00;100196.88;4956083;28;20046;-71
2022/08/15 01:36:18;;;;;;;23.90;17.80;;;;;;;19.83;100.00;100196.88;4960158;28;20725;-70
2022/08/15 01:38:53;;;;;;;22.27;16.48;;;;;;;20.00;100.00;100195.00;4958444;28;20039;-70
2022/08/15 01:41:47;;;;;;;22.65;16.58;;;;;;;19.97;100.00;100190.75;4954016;28;20035;-70
2022/08/15 01:44:19;;;;;;;23.92;16.60;;;;;;;20.02;100.00;100198.38;4953817;28;20076;-70
2022/08/15 01:46:58;;;;;;;24.23;16.63;;;;;;;19.63;100.00;100191.88;4937814;28;20039;-71
2022/08/15 01:49:32;;;;;;;24.20;17.00;;;;;;;19.57;100.00;100194.38;4954580;28;20817;-71
2022/08/15 01:52:01;;;;;;;26.55;18.65;;;;;;;19.20;100.00;100182.25;4951813;28;20082;-71
2022/08/15 01:54:32;;;;;;;27.40;17.73;;;;;;;19.28;100.00;100186.81;4937997;28;20042;-70
2022/08/15 01:56:59;;;;;;;28.30;17.42;;;;;;;19.26;100.00;100199.66;4958471;28;20049;-70
2022/08/15 01:59:24;;;;;;;25.75;17.67;;;;;;;19.46;100.00;100187.47;4940991;28;20065;-71
2022/08/15 02:01:58;;;;;;;26.25;17.45;;;;;;;19.15;100.00;100188.16;4962120;28;20652;-70
2022/08/15 02:04:32;;;;;;;24.45;17.23;;;;;;;19.00;100.00;100191.69;4955682;28;20046;-70
2022/08/15 02:07:01;;;;;;;24.92;17.27;;;;;;;18.89;100.00;100184.78;4955175;28;20035;-71
2022/08/15 02:09:29;;;;;;;26.33;18.73;;;;;;;18.96;100.00;100184.94;4955085;28;20077;-70
2022/08/15 02:11:59;;;;;;;27.15;17.98;;;;;;;18.84;100.00;100179.88;4952489;28;20069;-70
2022/08/15 02:14:25;;;;;;;27.23;17.90;;;;;;;18.84;100.00;100185.28;4940452;28;20034;-70
2022/08/15 02:16:51;;;;;;;29.50;20.45;;;;;;;19.20;100.00;100193.06;4956637;28;20527;-70
2022/08/15 02:19:17;;;;;;;31.40;20.08;;;;;;;19.42;100.00;100180.69;4954414;28;20033;-70
2022/08/15 02:21:46;;;;;;;27.70;18.98;;;;;;;19.28;100.00;100195.78;4956906;28;20494;-70
2022/08/15 02:24:17;;;;;;;26.65;18.65;;;;;;;19.06;100.00;100199.13;4953585;28;20658;-70
2022/08/15 02:26:43;;;;;;;23.33;16.52;;;;;;;19.17;100.00;100193.38;4959158;28;20035;-71
2022/08/15 02:29:09;;;;;;;28.13;19.83;;;;;;;19.29;100.00;100202.03;4951255;28;20042;-70
2022/08/15 02:31:36;;;;;;;35.35;20.48;;;;;;;19.19;100.00;100207.59;4953794;28;20042;-71
2022/08/15 02:34:05;;;;;;;33.00;20.42;;;;;;;19.08;100.00;100197.97;4957382;28;20920;-71
2022/08/15 02:36:32;;;;;;;27.98;19.98;;;;;;;18.93;100.00;100194.25;4953425;28;20049;-70
2022/08/15 02:39:07;;;;;;;28.85;19.48;;;;;;;19.04;100.00;100191.19;4950128;28;20033;-71
2022/08/15 02:41:38;;;;;;;30.80;20.70;;;;;;;19.13;100.00;100181.25;4936662;28;20037;-70
2022/08/15 02:44:03;;;;;;;25.60;18.52;;;;;;;19.29;100.00;100183.09;4954236;28;20076;-70
2022/08/15 02:46:29;;;;;;;28.70;18.50;;;;;;;19.31;100.00;100173.78;4956720;28;20042;-70
2022/08/15 02:48:58;;;;;;;26.17;18.70;;;;;;;19.31;100.00;100178.34;4951912;28;20039;-70
2022/08/15 02:51:38;;;;;;;26.17;18.33;;;;;;;19.39;100.00;100176.50;4953405;28;20114;-70
2022/08/15 02:54:05;;;;;;;29.15;19.63;;;;;;;19.20;100.00;100184.94;4919605;28;20322;-71
2022/08/15 02:56:33;;;;;;;30.52;20.17;;;;;;;18.94;100.00;100184.28;4950746;28;20038;-71
2022/08/15 02:59:01;;;;;;;28.27;19.95;;;;;;;18.93;100.00;100175.31;4949092;28;20045;-70
2022/08/15 03:01:28;;;;;;;27.90;17.60;;;;;;;18.99;100.00;100171.09;4953123;28;20065;-70
2022/08/15 03:03:56;;;;;;;28.55;18.77;;;;;;;19.01;100.00;100172.59;4959046;28;20113;-71
2022/08/15 03:06:26;;;;;;;29.67;19.52;;;;;;;18.92;100.00;100168.22;4951859;28;20668;-70
2022/08/15 03:08:53;;;;;;;28.45;19.50;;;;;;;18.83;100.00;100174.63;4948644;28;20041;-70
2022/08/15 03:11:20;;;;;;;36.55;20.17;;;;;;;18.95;100.00;100167.88;4956335;28;20035;-70
2022/08/15 03:13:46;;;;;;;25.48;18.52;;;;;;;19.08;100.00;100172.81;4952780;28;20469;-70
2022/08/15 03:16:13;;;;;;;24.75;18.75;;;;;;;19.22;100.00;100166.69;4950653;28;20045;-70
2022/08/15 03:18:41;;;;;;;25.10;18.23;;;;;;;19.11;100.00;100173.28;4955859;28;20172;-70
2022/08/15 03:21:17;;;;;;;30.95;19.17;;;;;;;19.23;100.00;100168.41;4954194;28;20041;-70
2022/08/15 03:23:48;;;;;;;29.20;18.52;;;;;;;19.14;100.00;100175.66;4953521;28;20149;-70
2022/08/15 03:26:25;;;;;;;27.50;18.13;;;;;;;19.15;100.00;100173.81;4954423;28;20149;-69
2022/08/15 03:28:51;;;;;;;29.35;19.17;;;;;;;19.11;100.00;100167.88;4938257;28;20047;-70
2022/08/15 03:31:17;;;;;;;26.65;18.77;;;;;;;19.04;100.00;100166.03;4952494;28;20113;-70
2022/08/15 03:33:45;;;;;;;35.53;20.38;;;;;;;19.03;100.00;100169.75;4951662;28;20077;-70
2022/08/15 03:36:12;;;;;;;26.27;18.50;;;;;;;18.86;100.00;100166.19;4949033;28;20039;-70
2022/08/15 03:38:38;;;;;;;27.25;20.02;;;;;;;18.92;100.00;100159.25;4939844;28;20074;-70
2022/08/15 03:41:08;;;;;;;25.50;18.20;;;;;;;18.82;100.00;100159.41;4935863;28;20543;-69
2022/08/15 03:43:37;;;;;;;29.65;20.13;;;;;;;18.75;100.00;100155.72;4954286;28;20150;-69
2022/08/15 03:46:08;;;;;;;26.15;18.70;;;;;;;18.75;100.00;100161.13;4951364;28;20039;-70
2022/08/15 03:48:39;;;;;;;27.40;19.33;;;;;;;18.50;100.00;100158.34;4946641;28;20783;-71
2022/08/15 03:51:07;;;;;;;30.98;19.55;;;;;;;18.18;100.00;100153.69;4936637;28;20030;-70
2022/08/15 03:53:43;;;;;;;29.13;19.23;;;;;;;18.08;100.00;100155.69;4933633;28;20029;-69
2022/08/15 03:56:14;;;;;;;30.55;21.02;;;;;;;18.10;100.00;100153.66;4949841;28;20057;-69
2022/08/15 03:58:42;;;;;;;30.95;20.20;;;;;;;18.25;100.00;100161.97;4936703;28;20038;-70
2022/08/15 04:01:15;;;;;;;29.33;20.05;;;;;;;18.26;100.00;100153.69;4938017;28;20064;-70
2022/08/15 04:03:42;;;;;;;28.98;19.10;;;;;;;18.29;100.00;100161.47;4954063;28;20027;-69
2022/08/15 04:06:15;;;;;;;28.70;19.35;;;;;;;18.31;100.00;100158.59;4949357;28;20054;-69
2022/08/15 04:08:46;;;;;;;29.60;20.23;;;;;;;18.23;100.00;100159.44;4953531;28;20043;-69
2022/08/15 04:11:12;;;;;;;29.85;20.50;;;;;;;18.13;100.00;100149.78;4950880;28;20035;-71
2022/08/15 04:13:40;;;;;;;28.13;19.55;;;;;;;18.07;100.00;100159.34;4936892;28;20042;-71
2022/08/15 04:16:07;;;;;;;31.33;20.13;;;;;;;18.10;100.00;100165.28;4951733;28;20094;-71
2022/08/15 04:18:33;;;;;;;29.30;19.42;;;;;;;18.28;100.00;100156.25;4951633;28;20058;-71
2022/08/15 04:21:00;;;;;;;30.38;19.77;;;;;;;18.42;100.00;100160.16;4948905;28;20057;-71
2022/08/15 04:23:28;;;;;;;31.48;20.52;;;;;;;18.30;100.00;100162.31;4948220;28;20065;-71
2022/08/15 04:25:53;;;;;;;39.97;24.08;;;;;;;18.11;100.00;100166.97;4948505;28;20114;-71
2022/08/15 04:28:20;;;;;;;34.35;20.67;;;;;;;18.18;100.00;100163.66;4935244;28;20038;-71
2022/08/15 04:30:48;;;;;;;40.88;21.88;;;;;;;18.23;100.00;100172.09;4932841;28;20078;-71
2022/08/15 04:33:16;;;;;;;28.42;20.15;;;;;;;18.34;100.00;100178.03;4947569;28;20030;-71
2022/08/15 04:35:46;;;;;;;33.30;20.77;;;;;;;18.29;100.00;100176.84;4933110;28;20027;-71
2022/08/15 04:38:13;;;;;;;33.15;20.88;;;;;;;18.21;100.00;100182.19;4952552;28;20038;-71
2022/08/15 04:40:39;;;;;;;31.95;20.98;;;;;;;18.38;100.00;100182.09;4949594;28;20031;-71
2022/08/15 04:43:05;;;;;;;31.02;19.88;;;;;;;18.39;100.00;100185.66;4954338;28;20066;-70
2022/08/15 04:45:33;;;;;;;32.15;20.27;;;;;;;18.56;100.00;100178.41;4949118;28;20068;-71
2022/08/15 04:48:03;;;;;;;28.52;18.85;;;;;;;18.53;100.00;100184.16;4956955;28;20041;-71
2022/08/15 04:50:32;;;;;;;29.58;20.17;;;;;;;18.49;100.00;100177.41;4949372;28;20116;-71
2022/08/15 04:53:03;;;;;;;27.73;19.38;;;;;;;18.55;100.00;100171.34;4949153;28;20082;-71
2022/08/15 04:55:29;;;;;;;27.65;19.70;;;;;;;18.50;100.00;100166.44;4939233;28;20085;-70
2022/08/15 04:57:56;;;;;;;29.48;18.35;;;;;;;18.56;100.00;100173.03;4949646;28;20026;-71
2022/08/15 05:00:28;;;;;;;30.42;19.63;;;;;;;18.47;100.00;100177.56;4949668;28;20675;-71
2022/08/15 05:03:23;;;;;;;28.80;19.02;;;;;;;18.68;100.00;100181.69;4938154;28;20503;-69
2022/08/15 05:05:56;;;;;;;;;;;;;;;18.91;100.00;100176.50;4947043;28;20047;-71
2022/08/15 05:08:26;;;;;;;28.38;19.58;;;;;;;18.86;100.00;100179.69;4948453;28;19969;-71
2022/08/15 05:11:02;;;;;;;30.42;19.38;;;;;;;19.07;100.00;100182.75;4948536;28;20042;-71
2022/08/15 05:13:30;;;;;;;29.02;20.75;;;;;;;19.18;100.00;100184.28;4931756;28;20039;-71
2022/08/15 05:16:01;;;;;;;32.97;22.10;;;;;;;19.29;100.00;100175.84;4944266;28;20108;-70
2022/08/15 05:18:30;;;;;;;31.00;22.38;;;;;;;19.47;100.00;100172.09;4957743;28;20027;-71
2022/08/15 05:20:57;;;;;;;31.58;22.77;;;;;;;19.61;100.00;100177.66;4962224;28;20038;-71
2022/08/15 05:23:25;;;;;;;37.25;22.92;;;;;;;19.73;100.00;100180.88;4933895;28;20023;-71
2022/08/15 05:25:57;;;;;;;37.38;25.83;;;;;;;19.79;100.00;100180.19;4963369;28;20117;-71
2022/08/15 05:28:24;;;;;;;33.50;23.88;;;;;;;20.05;100.00;100173.66;4960188;28;20150;-71
2022/08/15 05:30:52;;;;;;;32.35;21.70;;;;;;;20.13;100.00;100171.78;4944861;28;20035;-71
2022/08/15 05:33:22;;;;;;;29.17;21.50;;;;;;;20.38;100.00;100186.06;4960050;28;20038;-71
2022/08/15 05:35:54;;;;;;;34.92;22.20;;;;;;;20.52;100.00;100175.50;4945854;28;20050;-71
2022/08/15 05:38:26;;;;;;;38.25;21.80;;;;;;;20.50;100.00;100185.69;4955188;28;20362;-71
2022/08/15 05:41:27;;;;;;;32.40;21.42;;;;;;;20.43;100.00;100193.63;4950732;28;20113;-70
2022/08/15 05:43:53;;;;;;;33.15;22.25;;;;;;;20.55;100.00;100189.53;4956647;28;21048;-70
2022/08/15 05:46:56;;;;;;;33.30;22.27;;;;;;;20.77;96.98;100193.28;4948432;28;20779;-70
2022/08/15 05:49:54;;;;;;;30.48;20.58;;;;;;;20.90;95.31;100190.84;4955922;28;20555;-71
2022/08/15 05:53:00;;;;;;;30.00;19.33;;;;;;;20.89;93.90;100197.28;4941481;28;20056;-67
2022/08/15 05:55:38;;;;;;;31.50;18.38;;;;;;;21.23;91.71;100192.44;4955459;28;20042;-70
2022/08/15 05:58:19;;;;;;;22.23;17.08;;;;;;;21.44;89.67;100200.78;4953363;28;20184;-70
2022/08/15 06:00:50;;;;;;;25.23;16.27;;;;;;;21.74;88.84;100196.25;4946953;28;20035;-70
2022/08/15 06:03:24;;;;;;;26.85;16.27;;;;;;;21.73;87.96;100203.53;4938607;28;20041;-70
2022/08/15 06:05:54;;;;;;;24.15;15.73;;;;;;;21.76;86.48;100204.22;4938620;28;20031;-70
2022/08/15 06:08:26;;;;;;;26.65;15.43;;;;;;;21.98;84.97;100208.69;4948676;28;20903;-70
2022/08/15 06:10:55;;;;;;;19.35;14.57;;;;;;;22.75;83.47;100205.56;4956077;28;20062;-70
2022/08/15 06:13:29;;;;;;;17.13;13.57;;;;;;;22.88;80.07;100202.13;4932417;28;20030;-69
2022/08/15 06:16:17;;;;;;;21.95;14.13;;;;;;;22.59;78.39;100203.03;4949701;28;20038;-70
2022/08/15 06:18:46;;;;;;;18.20;12.50;;;;;;;22.75;78.84;100211.84;4959110;28;20382;-70
2022/08/15 06:21:30;;;;;;;19.13;11.50;;;;;;;22.58;78.04;100210.38;4932172;28;20043;-70
2022/08/15 06:24:07;;;;;;;13.88;9.80;;;;;;;22.58;77.06;100214.97;4958078;28;20557;-71
2022/08/15 06:26:48;;;;;;;11.98;9.65;;;;;;;22.62;75.42;100224.41;4949833;28;20043;-70
2022/08/15 06:29:38;;;;;;;13.65;8.02;;;;;;;22.93;73.91;100225.00;4951812;28;20169;-69
2022/08/15 06:32:24;;;;;;;11.27;6.75;;;;;;;23.34;70.34;100218.94;4931550;28;20042;-70
2022/08/15 06:35:04;;;;;;;13.40;6.40;;;;;;;23.14;69.72;100215.19;4956398;28;20035;-70
2022/08/15 06:38:19;;;;;;;12.15;6.88;;;;;;;23.21;68.92;100225.09;4961336;28;20057;-71
2022/08/15 06:41:11;;;;;;;7.95;6.43;;;;;;;22.81;72.70;100218.38;4876234;29;20094;-71
2022/08/15 06:43:36;;;;;;;11.13;6.55;;;;;;;22.83;71.94;100221.72;4876989;29;20143;-70
2022/08/15 06:46:13;;;;;;;11.45;6.25;;;;;;;22.57;71.22;100230.44;4888567;29;20051;-70
2022/08/15 06:48:41;;;;;;;10.82;6.00;;;;;;;22.73;71.98;100224.75;4877195;29;20164;-71
2022/08/15 06:51:09;;;;;;;12.45;5.70;;;;;;;22.89;69.38;100226.47;4875534;29;20036;-70
2022/08/15 06:53:44;;;;;;;;;;;;;;;22.96;70.36;100227.38;4893818;29;20032;-71
2022/08/15 06:56:17;;;;;;;10.68;5.57;;;;;;;22.95;69.75;100235.72;4893089;29;19919;-70
2022/08/15 06:58:50;;;;;;;13.65;5.07;;;;;;;22.72;68.10;100239.41;4893272;29;20123;-70
2022/08/15 07:01:43;;;;;;;7.63;4.72;;;;;;;22.83;67.85;100248.09;4860409;29;20514;-70
2022/08/15 07:04:54;;;;;;;8.50;5.38;;;;;;;23.07;67.61;100234.16;4892679;29;20040;-69
2022/08/15 07:07:45;;;;;;;7.90;4.88;;;;;;;22.90;68.79;100230.84;4868142;29;20052;-70
2022/08/15 07:10:26;;;;;;;7.05;4.40;;;;;;;22.84;67.95;100231.59;4882443;29;20051;-69
2022/08/15 07:12:53;;;;;;;;;;;;;;;23.08;66.78;100233.13;4876727;29;20051;-69
2022/08/15 07:15:49;;;;;;;6.93;4.43;;;;;;;23.00;66.99;100234.09;4917812;28;19976;-69
2022/08/15 07:18:39;;;;;;;7.45;3.80;;;;;;;23.08;66.05;100235.84;4958977;28;20085;-69
2022/08/15 07:21:17;;;;;;;7.10;4.43;;;;;;;23.16;68.63;100238.44;4960420;28;20042;-69
2022/08/15 07:24:09;;;;;;;7.82;4.57;;;;;;;23.26;67.97;100243.56;4952638;28;20814;-70
2022/08/15 07:26:46;;;;;;;7.88;4.93;;;;;;;23.41;67.88;100247.06;4951494;28;20212;-69
2022/08/15 07:29:37;;;;;;;8.95;5.07;;;;;;;23.61;66.40;100258.13;4969119;28;20042;-70
2022/08/15 07:32:14;;;;;;;13.10;4.55;;;;;;;23.75;65.34;100246.34;4957095;28;20058;-69
2022/08/15 07:34:54;;;;;;;10.95;4.47;;;;;;;23.83;64.22;100242.59;4950934;28;20065;-70
2022/08/15 07:37:22;;;;;;;7.47;4.47;;;;;;;23.93;63.92;100247.72;4934601;28;20048;-70
2022/08/15 07:40:02;;;;;;;12.25;4.70;;;;;;;24.13;64.19;100236.94;4934944;28;20149;-70
2022/08/15 07:42:28;;;;;;;10.90;5.03;;;;;;;24.34;63.82;100241.47;4950584;28;20145;-69
2022/08/15 07:44:59;;;;;;;7.30;4.35;;;;;;;24.26;62.96;100243.31;4968077;28;20050;-69
2022/08/15 07:47:35;;;;;;;6.72;4.20;;;;;;;24.40;63.97;100251.59;4950960;28;20034;-70
2022/08/15 07:50:12;;;;;;;9.00;4.72;;;;;;;24.47;62.67;100245.13;4950082;28;20042;-69
2022/08/15 07:52:38;;;;;;;10.32;4.15;;;;;;;24.57;61.90;100241.19;4947566;28;20208;-69
2022/08/15 07:55:14;;;;;;;9.13;4.15;;;;;;;24.69;62.54;100243.13;4951152;28;20758;-70
2022/08/15 07:57:41;;;;;;;10.20;4.22;;;;;;;24.87;60.68;100239.84;4963795;28;20708;-70
2022/08/15 08:00:21;;;;;;;11.32;4.15;;;;;;;24.88;62.39;100238.78;4934877;28;20764;-69
2022/08/15 08:03:13;;;;;;;10.48;4.63;;;;;;;24.66;61.56;100249.00;4949869;28;20097;-69
2022/08/15 08:06:12;;;;;;;6.55;4.72;;;;;;;24.96;60.58;100246.78;4948413;28;20491;-69
2022/08/15 08:08:47;;;;;;;9.48;4.68;;;;;;;24.93;63.91;100251.81;4948229;28;20046;-70
2022/08/15 08:11:52;;;;;;;7.53;4.40;;;;;;;25.25;60.79;100251.09;4954819;28;20687;-69
2022/08/15 08:14:41;;;;;;;6.88;4.45;;;;;;;25.03;59.40;100254.97;4926339;28;20047;-69
2022/08/15 08:17:30;;;;;;;6.95;5.20;;;;;;;25.23;60.23;100266.81;4947369;28;20064;-70
2022/08/15 08:20:05;;;;;;;7.65;4.47;;;;;;;25.29;61.33;100268.72;4950466;28;20121;-70
2022/08/15 08:22:47;;;;;;;5.93;4.38;;;;;;;25.23;61.58;100274.16;4955033;28;20034;-69
2022/08/15 08:25:24;;;;;;;10.70;4.93;;;;;;;25.21;61.72;100273.53;4949501;28;20046;-69
2022/08/15 08:28:01;;;;;;;6.80;5.40;;;;;;;25.51;59.18;100263.94;4950247;28;20066;-69
2022/08/15 08:30:46;;;;;;;8.27;4.93;;;;;;;25.43;59.07;100266.00;4950666;28;20050;-70
2022/08/15 08:33:33;;;;;;;16.90;5.43;;;;;;;25.23;60.25;100264.09;4967223;28;20195;-71
2022/08/15 08:36:21;;;;;;;6.68;4.63;;;;;;;25.16;60.70;100271.44;4968094;28;20038;-69
2022/08/15 08:39:08;;;;;;;10.40;5.75;;;;;;;25.24;59.69;100267.66;4956868;28;20053;-70
2022/08/15 08:42:02;;;;;;;7.05;5.32;;;;;;;25.02;61.78;100277.88;4967429;28;20038;-70
2022/08/15 08:44:56;;;;;;;13.20;6.00;;;;;;;25.09;62.24;100273.28;4950341;28;20050;-69
2022/08/15 08:47:34;;;;;;;7.90;5.50;;;;;;;25.17;60.42;100275.00;4966605;28;20034;-70
2022/08/15 08:50:32;;;;;;;9.48;6.65;;;;;;;25.41;61.23;100282.59;4956137;28;20468;-69
2022/08/15 08:53:32;;;;;;;9.77;6.78;;;;;;;25.27;59.94;100279.00;4946851;28;20584;-69
2022/08/15 08:56:21;;;;;;;10.85;5.82;;;;;;;25.81;59.97;100279.94;4952780;28;20124;-69
2022/08/15 08:59:18;;;;;;;15.27;5.90;;;;;;;25.65;60.43;100291.22;4967162;28;20825;-69
2022/08/15 09:01:47;;;;;;;7.50;6.03;;;;;;;25.69;60.54;100297.94;4955909;28;20042;-69
2022/08/15 09:04:20;;;;;;;7.28;5.43;;;;;;;25.51;62.80;100283.03;4962831;28;21430;-69
2022/08/15 09:06:49;;;;;;;9.07;5.78;;;;;;;25.54;62.43;100285.34;4956917;28;20042;-69
2022/08/15 09:09:32;;;;;;;9.73;6.22;;;;;;;25.65;62.57;100280.28;4949513;28;20046;-68
2022/08/15 09:14:51;;;;;;;15.38;6.00;;;;;;;26.01;62.04;100279.91;4956219;28;20165;-70
2022/08/15 09:17:19;;;;;;;15.30;5.90;;;;;;;25.77;63.05;100284.13;4963390;28;20030;-69
2022/08/15 09:19:50;;;;;;;12.32;6.20;;;;;;;25.66;63.27;100287.47;4964654;28;20490;-69
2022/08/15 09:22:17;;;;;;;12.95;7.07;;;;;;;25.30;63.18;100278.59;4945837;28;20602;-67
2022/08/15 09:24:43;;;;;;;9.10;6.05;;;;;;;25.05;61.95;100281.03;4964706;28;20222;-68
2022/08/15 09:27:22;;;;;;;12.73;5.95;;;;;;;24.87;63.11;100272.56;4963786;28;20042;-69
2022/08/15 09:30:06;;;;;;;9.20;5.50;;;;;;;24.78;63.23;100277.34;4963909;28;20046;-67
2022/08/15 09:32:34;;;;;;;9.93;5.72;;;;;;;24.43;65.12;100289.34;4955153;28;20052;-68
2022/08/15 09:35:30;;;;;;;11.98;5.63;;;;;;;24.57;64.13;100284.81;4946432;28;20952;-70
2022/08/15 09:38:08;;;;;;;10.07;5.85;;;;;;;24.35;66.44;100281.28;4964337;28;20050;-68
2022/08/15 09:40:57;;;;;;;9.20;5.40;;;;;;;24.52;67.06;100274.50;4964217;28;20042;-69
2022/08/15 09:43:56;;;;;;;6.72;4.97;;;;;;;24.42;66.44;100274.03;4963776;28;20053;-69
2022/08/15 09:46:35;;;;;;;14.90;5.43;;;;;;;24.76;66.48;100275.88;4963057;28;20054;-71
2022/08/15 09:49:00;;;;;;;11.13;5.75;;;;;;;24.63;65.87;100289.44;4969258;28;20038;-70
2022/08/15 09:51:33;;;;;;;10.45;5.88;;;;;;;24.83;66.57;100293.09;4937415;28;20113;-70
2022/08/15 09:54:23;;;;;;;7.93;4.90;;;;;;;25.21;65.14;100298.94;4942606;28;20046;-69
2022/08/15 09:57:28;;;;;;;10.00;5.20;;;;;;;25.10;63.74;100293.22;4939987;28;20125;-68
2022/08/15 10:00:00;;;;;;;10.18;6.07;;;;;;;25.30;64.49;100294.13;4947765;28;20426;-69
2022/08/15 10:02:32;;;;;;;6.68;5.47;;;;;;;25.38;64.44;100302.13;4949103;28;20787;-68
2022/08/15 10:04:57;;;;;;;;;;;;;;;25.35;64.50;100299.78;4961241;28;20050;-69
2022/08/15 10:07:43;;;;;;;8.77;5.20;;;;;;;25.57;63.58;100305.94;4950836;28;19926;-68
2022/08/15 10:10:18;;;;;;;11.13;5.50;;;;;;;25.54;62.24;100303.59;4957685;28;20045;-69
2022/08/15 10:13:09;;;;;;;15.90;7.07;;;;;;;25.39;64.58;100302.97;4956243;28;20066;-70
2022/08/15 10:15:46;;;;;;;10.00;5.97;;;;;;;25.34;65.86;100302.75;4969214;28;20038;-70
2022/08/15 10:18:27;;;;;;;9.73;6.03;;;;;;;25.35;65.61;100307.97;4952219;28;20073;-70
2022/08/15 10:20:55;;;;;;;13.32;5.88;;;;;;;25.43;66.01;100304.22;4969914;28;20034;-70
2022/08/15 10:23:31;;;;;;;14.88;6.72;;;;;;;25.54;68.12;100312.63;4969507;28;20046;-70
2022/08/15 10:29:09;;;;;;;9.73;6.47;;;;;;;25.80;67.55;100313.75;5003350;23;20146;-71
2022/08/15 10:31:40;;;;;;;12.20;7.03;;;;;;;26.48;66.47;100314.34;4997797;28;20043;-73
2022/08/15 10:34:18;;;;;;;14.75;7.15;;;;;;;26.63;65.22;100311.34;4991466;28;20042;-73
2022/08/15 10:37:05;;;;;;;11.43;6.93;;;;;;;27.23;63.53;100308.38;4990562;28;20061;-71
2022/08/15 10:39:30;;;;;;;11.57;7.75;;;;;;;26.96;61.97;100324.91;5011552;28;20037;-76
2022/08/15 10:42:09;;;;;;;11.23;7.03;;;;;;;27.21;61.59;100314.09;5010318;28;20033;-74
2022/08/15 10:45:11;;;;;;;12.27;7.22;;;;;;;27.49;63.02;100316.44;5011055;28;20600;-74
2022/08/15 10:47:57;;;;;;;24.02;8.63;;;;;;;27.45;62.08;100306.13;5010274;28;20046;-73
2022/08/15 10:50:34;;;;;;;11.85;7.90;;;;;;;27.31;63.37;100314.44;4991980;28;20025;-72
2022/08/15 10:53:27;;;;;;;12.45;8.52;;;;;;;27.87;60.53;100310.91;5002666;28;20108;-73
2022/08/15 10:56:16;;;;;;;14.98;8.27;;;;;;;28.01;61.70;100308.03;5005511;28;20038;-73
2022/08/15 10:58:43;;;;;;;12.32;8.55;;;;;;;27.90;59.47;100306.88;5006908;28;20043;-78
2022/08/15 11:01:20;;;;;;;13.50;7.97;;;;;;;28.34;57.64;100308.59;4997048;28;20052;-74
2022/08/15 11:03:54;;;;;;;10.80;7.05;;;;;;;28.33;57.92;100308.81;5009612;28;20115;-73
2022/08/15 11:06:22;;;;;;;10.55;7.70;;;;;;;28.69;56.89;100309.91;4975856;28;20055;-75
2022/08/15 11:09:06;;;;;;;12.73;7.70;;;;;;;28.84;56.60;100311.19;4991570;28;20038;-76
2022/08/15 11:11:37;;;;;;;12.20;7.57;;;;;;;28.25;59.03;100312.66;5010634;28;20119;-77
2022/08/15 11:14:15;;;;;;;11.02;7.85;;;;;;;28.41;59.24;100313.16;4993644;28;20044;-76
2022/08/15 11:16:51;;;;;;;11.77;7.03;;;;;;;28.18;57.61;100316.56;4981082;28;20421;-74
2022/08/15 11:19:29;;;;;;;18.13;7.22;;;;;;;27.99;58.88;100312.91;4995020;28;20029;-75
2022/08/15 11:22:01;;;;;;;15.32;8.25;;;;;;;27.59;59.67;100315.94;4997831;28;20122;-74
2022/08/15 11:24:37;;;;;;;21.58;8.00;;;;;;;27.60;60.15;100315.72;4970257;28;20497;-76
2022/08/15 11:27:21;;;;;;;13.10;7.05;;;;;;;27.61;60.07;100328.38;4988842;28;20821;-77
2022/08/15 11:29:49;;;;;;;15.05;7.60;;;;;;;27.54;60.97;100324.81;4970466;28;20048;-72
2022/08/15 11:32:33;;;;;;;11.85;8.43;;;;;;;27.54;59.64;100326.72;4987759;28;20033;-73
2022/08/15 11:35:01;;;;;;;14.55;8.32;;;;;;;27.55;59.26;100331.13;4987839;28;20048;-75
2022/08/15 11:37:37;;;;;;;17.55;8.73;;;;;;;27.62;59.16;100332.78;5000171;28;20045;-73
2022/08/15 11:40:08;;;;;;;13.25;8.18;;;;;;;27.96;58.43;100336.13;5004233;28;20128;-72
2022/08/15 11:42:38;;;;;;;14.40;8.45;;;;;;;28.19;59.63;100342.91;4990264;28;20149;-73
2022/08/15 11:45:09;;;;;;;12.05;7.32;;;;;;;28.22;58.65;100340.56;4992136;28;20135;-74
2022/08/15 11:47:43;;;;;;;10.03;7.57;;;;;;;28.01;59.70;100349.16;4992777;28;20061;-73
2022/08/15 11:50:21;;;;;;;15.35;7.78;;;;;;;28.19;58.48;100346.47;5002188;28;20471;-73
2022/08/15 11:52:51;;;;;;;7.75;6.70;;;;;;;27.60;61.08;100350.50;5005853;28;20233;-75
2022/08/15 11:55:16;;;;;;;15.10;8.80;;;;;;;27.40;60.03;100336.91;5014533;28;20032;-72